sensor_id;sensor_type;location;lat;lon;timestamp;P1;durP1;ratioP1;P2;durP2;ratioP2
66669;SDS011;53568;52.164;4.472;2024-01-10T00:01:41;6.72;;;6.68;;
66669;SDS011;53568;52.164;4.472;2024-01-10T00:04:06;6.50;;;6.47;;
66669;SDS011;53568;52.164;4.472;2024-01-10T00:06:32;7.14;;;7.10;;
66669;SDS011;53568;52.164;4.472;2024-01-10T00:08:58;6.82;;;6.73;;
66669;SDS011;53568;52.164;4.472;2024-01-10T00:11:23;6.99;;;6.88;;
66669;SDS011;53568;52.164;4.472;2024-01-10T00:13:48;6.89;;;6.79;;
66669;SDS011;53568;52.164;4.472;2024-01-10T00:16:14;6.81;;;6.73;;
66669;SDS011;53568;52.164;4.472;2024-01-10T00:18:40;7.10;;;7.01;;
66669;SDS011;53568;52.164;4.472;2024-01-10T00:21:06;6.91;;;6.86;;
66669;SDS011;53568;52.164;4.472;2024-01-10T00:23:32;7.02;;;6.97;;
66669;SDS011;53568;52.164;4.472;2024-01-10T00:25:58;7.12;;;7.04;;
66669;SDS011;53568;52.164;4.472;2024-01-10T00:28:23;7.16;;;7.09;;
66669;SDS011;53568;52.164;4.472;2024-01-10T00:30:50;6.91;;;6.80;;
66669;SDS011;53568;52.164;4.472;2024-01-10T00:33:15;7.08;;;7.03;;
66669;SDS011;53568;52.164;4.472;2024-01-10T00:35:41;6.72;;;6.70;;
66669;SDS011;53568;52.164;4.472;2024-01-10T00:38:07;7.11;;;7.06;;
66669;SDS011;53568;52.164;4.472;2024-01-10T00:40:34;6.98;;;6.96;;
66669;SDS011;53568;52.164;4.472;2024-01-10T00:42:59;7.46;;;7.40;;
66669;SDS011;53568;52.164;4.472;2024-01-10T00:45:25;7.07;;;6.99;;
66669;SDS011;53568;52.164;4.472;2024-01-10T00:47:50;7.15;;;7.08;;
66669;SDS011;53568;52.164;4.472;2024-01-10T00:50:16;6.97;;;6.90;;
66669;SDS011;53568;52.164;4.472;2024-01-10T00:52:42;7.02;;;6.95;;
66669;SDS011;53568;52.164;4.472;2024-01-10T00:55:08;7.32;;;7.23;;
66669;SDS011;53568;52.164;4.472;2024-01-10T00:57:34;6.76;;;6.73;;
66669;SDS011;53568;52.164;4.472;2024-01-10T00:59:59;7.03;;;6.97;;
66669;SDS011;53568;52.164;4.472;2024-01-10T01:02:25;7.31;;;7.24;;
66669;SDS011;53568;52.164;4.472;2024-01-10T01:04:50;7.55;;;7.39;;
66669;SDS011;53568;52.164;4.472;2024-01-10T01:07:16;7.47;;;7.34;;
66669;SDS011;53568;52.164;4.472;2024-01-10T01:09:41;7.22;;;7.09;;
66669;SDS011;53568;52.164;4.472;2024-01-10T01:12:07;7.85;;;7.71;;
66669;SDS011;53568;52.164;4.472;2024-01-10T01:14:32;7.62;;;7.57;;
66669;SDS011;53568;52.164;4.472;2024-01-10T01:16:58;7.58;;;7.52;;
66669;SDS011;53568;52.164;4.472;2024-01-10T01:19:24;7.70;;;7.65;;
66669;SDS011;53568;52.164;4.472;2024-01-10T01:21:49;7.63;;;7.50;;
66669;SDS011;53568;52.164;4.472;2024-01-10T01:24:15;7.57;;;7.52;;
66669;SDS011;53568;52.164;4.472;2024-01-10T01:26:40;7.99;;;7.98;;
66669;SDS011;53568;52.164;4.472;2024-01-10T01:29:06;8.00;;;7.96;;
66669;SDS011;53568;52.164;4.472;2024-01-10T01:31:33;8.37;;;8.27;;
66669;SDS011;53568;52.164;4.472;2024-01-10T01:33:58;8.38;;;8.28;;
66669;SDS011;53568;52.164;4.472;2024-01-10T01:36:24;8.28;;;8.26;;
66669;SDS011;53568;52.164;4.472;2024-01-10T01:38:50;7.85;;;7.79;;
66669;SDS011;53568;52.164;4.472;2024-01-10T01:41:15;8.31;;;8.20;;
66669;SDS011;53568;52.164;4.472;2024-01-10T01:43:42;8.42;;;8.30;;
66669;SDS011;53568;52.164;4.472;2024-01-10T01:46:08;8.02;;;7.92;;
66669;SDS011;53568;52.164;4.472;2024-01-10T01:48:34;8.28;;;8.18;;
66669;SDS011;53568;52.164;4.472;2024-01-10T01:51:02;8.66;;;8.55;;
66669;SDS011;53568;52.164;4.472;2024-01-10T01:53:35;8.87;;;8.77;;
66669;SDS011;53568;52.164;4.472;2024-01-10T01:56:02;9.17;;;9.05;;
66669;SDS011;53568;52.164;4.472;2024-01-10T01:58:31;9.56;;;9.40;;
66669;SDS011;53568;52.164;4.472;2024-01-10T02:00:57;10.01;;;9.84;;
66669;SDS011;53568;52.164;4.472;2024-01-10T02:03:24;9.90;;;9.85;;
66669;SDS011;53568;52.164;4.472;2024-01-10T02:05:51;9.70;;;9.70;;
66669;SDS011;53568;52.164;4.472;2024-01-10T02:08:17;10.12;;;10.06;;
66669;SDS011;53568;52.164;4.472;2024-01-10T02:10:42;10.08;;;10.05;;
66669;SDS011;53568;52.164;4.472;2024-01-10T02:13:08;10.08;;;10.01;;
66669;SDS011;53568;52.164;4.472;2024-01-10T02:15:36;10.76;;;10.66;;
66669;SDS011;53568;52.164;4.472;2024-01-10T02:18:03;10.50;;;10.49;;
66669;SDS011;53568;52.164;4.472;2024-01-10T02:20:30;10.39;;;10.30;;
66669;SDS011;53568;52.164;4.472;2024-01-10T02:22:56;10.75;;;10.70;;
66669;SDS011;53568;52.164;4.472;2024-01-10T02:25:22;10.82;;;10.74;;
66669;SDS011;53568;52.164;4.472;2024-01-10T02:27:48;11.58;;;11.32;;
66669;SDS011;53568;52.164;4.472;2024-01-10T02:30:13;11.35;;;11.14;;
66669;SDS011;53568;52.164;4.472;2024-01-10T02:32:39;11.05;;;10.97;;
66669;SDS011;53568;52.164;4.472;2024-01-10T02:35:05;11.45;;;11.27;;
66669;SDS011;53568;52.164;4.472;2024-01-10T02:37:31;10.89;;;10.83;;
66669;SDS011;53568;52.164;4.472;2024-01-10T02:39:57;11.40;;;11.29;;
66669;SDS011;53568;52.164;4.472;2024-01-10T02:42:22;11.06;;;11.00;;
66669;SDS011;53568;52.164;4.472;2024-01-10T02:44:48;11.64;;;11.48;;
66669;SDS011;53568;52.164;4.472;2024-01-10T02:47:13;11.58;;;11.48;;
66669;SDS011;53568;52.164;4.472;2024-01-10T02:49:39;11.72;;;11.68;;
66669;SDS011;53568;52.164;4.472;2024-01-10T02:52:04;11.69;;;11.55;;
66669;SDS011;53568;52.164;4.472;2024-01-10T02:54:30;11.75;;;11.55;;
66669;SDS011;53568;52.164;4.472;2024-01-10T02:56:56;11.87;;;11.79;;
66669;SDS011;53568;52.164;4.472;2024-01-10T02:59:22;11.90;;;11.82;;
66669;SDS011;53568;52.164;4.472;2024-01-10T03:01:47;12.05;;;11.93;;
66669;SDS011;53568;52.164;4.472;2024-01-10T03:04:13;11.85;;;11.71;;
66669;SDS011;53568;52.164;4.472;2024-01-10T03:06:38;11.64;;;11.54;;
66669;SDS011;53568;52.164;4.472;2024-01-10T03:09:04;12.76;;;12.58;;
66669;SDS011;53568;52.164;4.472;2024-01-10T03:11:29;12.15;;;12.02;;
66669;SDS011;53568;52.164;4.472;2024-01-10T03:14:29;12.70;;;12.60;;
66669;SDS011;53568;52.164;4.472;2024-01-10T03:16:47;11.68;;;11.55;;
66669;SDS011;53568;52.164;4.472;2024-01-10T03:19:13;13.01;;;12.80;;
66669;SDS011;53568;52.164;4.472;2024-01-10T03:21:39;12.33;;;12.22;;
66669;SDS011;53568;52.164;4.472;2024-01-10T03:24:05;12.25;;;12.17;;
66669;SDS011;53568;52.164;4.472;2024-01-10T03:26:30;12.30;;;12.17;;
66669;SDS011;53568;52.164;4.472;2024-01-10T03:28:56;12.23;;;12.06;;
66669;SDS011;53568;52.164;4.472;2024-01-10T03:31:22;13.20;;;12.99;;
66669;SDS011;53568;52.164;4.472;2024-01-10T03:33:48;12.90;;;12.85;;
66669;SDS011;53568;52.164;4.472;2024-01-10T03:36:15;12.75;;;12.71;;
66669;SDS011;53568;52.164;4.472;2024-01-10T03:38:42;12.69;;;12.63;;
66669;SDS011;53568;52.164;4.472;2024-01-10T03:41:12;12.74;;;12.56;;
66669;SDS011;53568;52.164;4.472;2024-01-10T03:43:42;12.69;;;12.58;;
66669;SDS011;53568;52.164;4.472;2024-01-10T03:46:11;12.31;;;12.28;;
66669;SDS011;53568;52.164;4.472;2024-01-10T03:48:37;12.71;;;12.60;;
66669;SDS011;53568;52.164;4.472;2024-01-10T03:51:07;12.73;;;12.64;;
66669;SDS011;53568;52.164;4.472;2024-01-10T03:53:34;12.96;;;12.90;;
66669;SDS011;53568;52.164;4.472;2024-01-10T03:55:59;12.88;;;12.73;;
66669;SDS011;53568;52.164;4.472;2024-01-10T03:58:28;12.49;;;12.39;;
66669;SDS011;53568;52.164;4.472;2024-01-10T04:00:54;12.29;;;12.29;;
66669;SDS011;53568;52.164;4.472;2024-01-10T04:03:19;12.28;;;12.23;;
66669;SDS011;53568;52.164;4.472;2024-01-10T04:05:45;12.81;;;12.60;;
66669;SDS011;53568;52.164;4.472;2024-01-10T04:08:10;13.04;;;12.88;;
66669;SDS011;53568;52.164;4.472;2024-01-10T04:10:36;13.09;;;13.04;;
66669;SDS011;53568;52.164;4.472;2024-01-10T04:13:01;13.44;;;13.31;;
66669;SDS011;53568;52.164;4.472;2024-01-10T04:15:27;13.57;;;13.52;;
66669;SDS011;53568;52.164;4.472;2024-01-10T04:17:52;13.31;;;13.11;;
66669;SDS011;53568;52.164;4.472;2024-01-10T04:20:18;13.50;;;13.24;;
66669;SDS011;53568;52.164;4.472;2024-01-10T04:22:43;12.92;;;12.82;;
66669;SDS011;53568;52.164;4.472;2024-01-10T04:25:10;13.44;;;13.34;;
66669;SDS011;53568;52.164;4.472;2024-01-10T04:27:36;13.61;;;13.42;;
66669;SDS011;53568;52.164;4.472;2024-01-10T04:30:02;13.50;;;13.37;;
66669;SDS011;53568;52.164;4.472;2024-01-10T04:32:28;13.52;;;13.40;;
66669;SDS011;53568;52.164;4.472;2024-01-10T04:34:53;13.41;;;13.28;;
66669;SDS011;53568;52.164;4.472;2024-01-10T04:37:19;14.18;;;14.01;;
66669;SDS011;53568;52.164;4.472;2024-01-10T04:39:44;14.03;;;13.82;;
66669;SDS011;53568;52.164;4.472;2024-01-10T04:42:10;13.78;;;13.52;;
66669;SDS011;53568;52.164;4.472;2024-01-10T04:44:36;13.98;;;13.82;;
66669;SDS011;53568;52.164;4.472;2024-01-10T04:47:02;13.91;;;13.78;;
66669;SDS011;53568;52.164;4.472;2024-01-10T04:49:28;14.05;;;13.88;;
66669;SDS011;53568;52.164;4.472;2024-01-10T04:51:54;14.03;;;13.94;;
66669;SDS011;53568;52.164;4.472;2024-01-10T04:54:20;14.46;;;14.27;;
66669;SDS011;53568;52.164;4.472;2024-01-10T04:56:45;14.21;;;14.06;;
66669;SDS011;53568;52.164;4.472;2024-01-10T04:59:11;14.41;;;14.29;;
66669;SDS011;53568;52.164;4.472;2024-01-10T05:01:36;14.09;;;13.92;;
66669;SDS011;53568;52.164;4.472;2024-01-10T05:04:02;14.76;;;14.58;;
66669;SDS011;53568;52.164;4.472;2024-01-10T05:06:28;14.53;;;14.34;;
66669;SDS011;53568;52.164;4.472;2024-01-10T05:08:54;13.56;;;13.55;;
66669;SDS011;53568;52.164;4.472;2024-01-10T05:11:23;13.54;;;13.50;;
66669;SDS011;53568;52.164;4.472;2024-01-10T05:13:50;13.21;;;13.14;;
66669;SDS011;53568;52.164;4.472;2024-01-10T05:16:15;13.43;;;13.25;;
66669;SDS011;53568;52.164;4.472;2024-01-10T05:18:41;13.51;;;13.37;;
66669;SDS011;53568;52.164;4.472;2024-01-10T05:21:06;13.08;;;12.90;;
66669;SDS011;53568;52.164;4.472;2024-01-10T05:23:32;13.18;;;13.05;;
66669;SDS011;53568;52.164;4.472;2024-01-10T05:25:58;13.37;;;13.18;;
66669;SDS011;53568;52.164;4.472;2024-01-10T05:28:24;12.48;;;12.41;;
66669;SDS011;53568;52.164;4.472;2024-01-10T05:30:49;12.51;;;12.42;;
66669;SDS011;53568;52.164;4.472;2024-01-10T05:33:14;12.25;;;12.16;;
66669;SDS011;53568;52.164;4.472;2024-01-10T05:35:40;12.73;;;12.55;;
66669;SDS011;53568;52.164;4.472;2024-01-10T05:38:06;13.22;;;13.02;;
66669;SDS011;53568;52.164;4.472;2024-01-10T05:40:32;12.84;;;12.63;;
66669;SDS011;53568;52.164;4.472;2024-01-10T05:42:58;12.74;;;12.55;;
66669;SDS011;53568;52.164;4.472;2024-01-10T05:45:27;12.31;;;12.15;;
66669;SDS011;53568;52.164;4.472;2024-01-10T05:47:53;12.55;;;12.34;;
66669;SDS011;53568;52.164;4.472;2024-01-10T05:50:20;12.61;;;12.52;;
66669;SDS011;53568;52.164;4.472;2024-01-10T05:52:46;12.47;;;12.37;;
66669;SDS011;53568;52.164;4.472;2024-01-10T05:55:12;12.77;;;12.55;;
66669;SDS011;53568;52.164;4.472;2024-01-10T05:57:38;12.25;;;12.03;;
66669;SDS011;53568;52.164;4.472;2024-01-10T06:00:04;12.07;;;11.92;;
66669;SDS011;53568;52.164;4.472;2024-01-10T06:02:41;12.56;;;12.31;;
66669;SDS011;53568;52.164;4.472;2024-01-10T06:07:36;11.98;;;11.93;;
66669;SDS011;53568;52.164;4.472;2024-01-10T06:10:03;11.78;;;11.70;;
66669;SDS011;53568;52.164;4.472;2024-01-10T06:12:30;11.63;;;11.54;;
66669;SDS011;53568;52.164;4.472;2024-01-10T06:14:55;11.55;;;11.45;;
66669;SDS011;53568;52.164;4.472;2024-01-10T06:17:21;12.32;;;12.10;;
66669;SDS011;53568;52.164;4.472;2024-01-10T06:19:47;12.28;;;12.07;;
66669;SDS011;53568;52.164;4.472;2024-01-10T06:22:12;11.92;;;11.83;;
66669;SDS011;53568;52.164;4.472;2024-01-10T06:24:38;12.31;;;12.22;;
66669;SDS011;53568;52.164;4.472;2024-01-10T06:27:06;11.84;;;11.69;;
66669;SDS011;53568;52.164;4.472;2024-01-10T06:29:31;11.70;;;11.59;;
66669;SDS011;53568;52.164;4.472;2024-01-10T06:31:58;11.84;;;11.76;;
66669;SDS011;53568;52.164;4.472;2024-01-10T06:34:23;11.54;;;11.52;;
66669;SDS011;53568;52.164;4.472;2024-01-10T06:36:49;11.99;;;11.88;;
66669;SDS011;53568;52.164;4.472;2024-01-10T06:39:15;12.24;;;12.05;;
66669;SDS011;53568;52.164;4.472;2024-01-10T06:41:42;12.19;;;12.01;;
66669;SDS011;53568;52.164;4.472;2024-01-10T06:44:07;12.18;;;12.08;;
66669;SDS011;53568;52.164;4.472;2024-01-10T06:46:33;11.87;;;11.78;;
66669;SDS011;53568;52.164;4.472;2024-01-10T06:48:59;11.96;;;11.84;;
66669;SDS011;53568;52.164;4.472;2024-01-10T06:51:25;11.94;;;11.72;;
66669;SDS011;53568;52.164;4.472;2024-01-10T06:53:52;12.40;;;12.21;;
66669;SDS011;53568;52.164;4.472;2024-01-10T06:56:18;12.03;;;11.96;;
66669;SDS011;53568;52.164;4.472;2024-01-10T06:58:43;12.17;;;12.07;;
66669;SDS011;53568;52.164;4.472;2024-01-10T07:01:13;12.81;;;12.69;;
66669;SDS011;53568;52.164;4.472;2024-01-10T07:03:39;12.32;;;12.23;;
66669;SDS011;53568;52.164;4.472;2024-01-10T07:06:05;12.52;;;12.34;;
66669;SDS011;53568;52.164;4.472;2024-01-10T07:08:32;12.89;;;12.69;;
66669;SDS011;53568;52.164;4.472;2024-01-10T07:10:58;12.33;;;12.21;;
66669;SDS011;53568;52.164;4.472;2024-01-10T07:13:23;12.03;;;11.90;;
66669;SDS011;53568;52.164;4.472;2024-01-10T07:15:49;12.18;;;12.15;;
66669;SDS011;53568;52.164;4.472;2024-01-10T07:18:17;12.44;;;12.39;;
66669;SDS011;53568;52.164;4.472;2024-01-10T07:20:43;12.21;;;12.14;;
66669;SDS011;53568;52.164;4.472;2024-01-10T07:23:08;12.25;;;12.16;;
66669;SDS011;53568;52.164;4.472;2024-01-10T07:25:35;12.10;;;11.92;;
66669;SDS011;53568;52.164;4.472;2024-01-10T07:28:00;12.71;;;12.55;;
66669;SDS011;53568;52.164;4.472;2024-01-10T07:30:26;11.75;;;11.69;;
66669;SDS011;53568;52.164;4.472;2024-01-10T07:32:51;11.71;;;11.60;;
66669;SDS011;53568;52.164;4.472;2024-01-10T07:35:17;11.77;;;11.62;;
66669;SDS011;53568;52.164;4.472;2024-01-10T07:37:42;11.94;;;11.85;;
66669;SDS011;53568;52.164;4.472;2024-01-10T07:40:08;11.65;;;11.60;;
66669;SDS011;53568;52.164;4.472;2024-01-10T07:42:36;11.72;;;11.61;;
66669;SDS011;53568;52.164;4.472;2024-01-10T07:45:02;12.02;;;11.90;;
66669;SDS011;53568;52.164;4.472;2024-01-10T07:47:33;12.02;;;11.94;;
66669;SDS011;53568;52.164;4.472;2024-01-10T07:49:59;11.65;;;11.60;;
66669;SDS011;53568;52.164;4.472;2024-01-10T07:52:25;11.70;;;11.56;;
66669;SDS011;53568;52.164;4.472;2024-01-10T07:54:51;11.85;;;11.74;;
66669;SDS011;53568;52.164;4.472;2024-01-10T07:57:16;11.72;;;11.58;;
66669;SDS011;53568;52.164;4.472;2024-01-10T07:59:44;11.72;;;11.51;;
66669;SDS011;53568;52.164;4.472;2024-01-10T08:02:10;11.63;;;11.41;;
66669;SDS011;53568;52.164;4.472;2024-01-10T08:04:37;12.12;;;11.87;;
66669;SDS011;53568;52.164;4.472;2024-01-10T08:07:02;11.64;;;11.41;;
66669;SDS011;53568;52.164;4.472;2024-01-10T08:09:28;12.00;;;11.83;;
66669;SDS011;53568;52.164;4.472;2024-01-10T08:11:54;12.13;;;11.88;;
66669;SDS011;53568;52.164;4.472;2024-01-10T08:14:19;11.91;;;11.70;;
66669;SDS011;53568;52.164;4.472;2024-01-10T08:16:45;11.59;;;11.41;;
66669;SDS011;53568;52.164;4.472;2024-01-10T08:19:10;11.56;;;11.46;;
66669;SDS011;53568;52.164;4.472;2024-01-10T08:21:36;11.36;;;11.27;;
66669;SDS011;53568;52.164;4.472;2024-01-10T08:24:02;11.71;;;11.61;;
66669;SDS011;53568;52.164;4.472;2024-01-10T08:26:30;10.99;;;10.98;;
66669;SDS011;53568;52.164;4.472;2024-01-10T08:28:56;11.57;;;11.50;;
66669;SDS011;53568;52.164;4.472;2024-01-10T08:31:22;11.03;;;10.92;;
66669;SDS011;53568;52.164;4.472;2024-01-10T08:33:48;11.32;;;11.18;;
66669;SDS011;53568;52.164;4.472;2024-01-10T08:36:14;11.29;;;11.08;;
66669;SDS011;53568;52.164;4.472;2024-01-10T08:38:40;10.90;;;10.83;;
66669;SDS011;53568;52.164;4.472;2024-01-10T08:41:09;10.97;;;10.91;;
66669;SDS011;53568;52.164;4.472;2024-01-10T08:43:37;11.15;;;11.08;;
66669;SDS011;53568;52.164;4.472;2024-01-10T08:46:03;10.93;;;10.86;;
66669;SDS011;53568;52.164;4.472;2024-01-10T08:48:29;11.02;;;10.91;;
66669;SDS011;53568;52.164;4.472;2024-01-10T08:50:54;10.95;;;10.78;;
66669;SDS011;53568;52.164;4.472;2024-01-10T08:53:21;10.99;;;10.86;;
66669;SDS011;53568;52.164;4.472;2024-01-10T08:55:47;10.89;;;10.75;;
66669;SDS011;53568;52.164;4.472;2024-01-10T08:58:13;10.96;;;10.83;;
66669;SDS011;53568;52.164;4.472;2024-01-10T09:00:39;11.07;;;10.97;;
66669;SDS011;53568;52.164;4.472;2024-01-10T09:03:04;10.84;;;10.79;;
66669;SDS011;53568;52.164;4.472;2024-01-10T09:05:30;11.03;;;11.00;;
66669;SDS011;53568;52.164;4.472;2024-01-10T09:07:55;10.64;;;10.60;;
66669;SDS011;53568;52.164;4.472;2024-01-10T09:10:21;10.65;;;10.50;;
66669;SDS011;53568;52.164;4.472;2024-01-10T09:12:47;11.00;;;10.85;;
66669;SDS011;53568;52.164;4.472;2024-01-10T09:15:13;10.74;;;10.55;;
66669;SDS011;53568;52.164;4.472;2024-01-10T09:17:40;10.99;;;10.91;;
66669;SDS011;53568;52.164;4.472;2024-01-10T09:20:07;11.00;;;10.91;;
66669;SDS011;53568;52.164;4.472;2024-01-10T09:22:33;10.67;;;10.61;;
66669;SDS011;53568;52.164;4.472;2024-01-10T09:24:59;10.74;;;10.59;;
66669;SDS011;53568;52.164;4.472;2024-01-10T09:27:29;10.67;;;10.61;;
66669;SDS011;53568;52.164;4.472;2024-01-10T09:29:55;10.43;;;10.38;;
66669;SDS011;53568;52.164;4.472;2024-01-10T09:32:21;10.66;;;10.61;;
66669;SDS011;53568;52.164;4.472;2024-01-10T09:34:47;10.27;;;10.22;;
66669;SDS011;53568;52.164;4.472;2024-01-10T09:37:13;10.93;;;10.82;;
66669;SDS011;53568;52.164;4.472;2024-01-10T09:39:38;10.73;;;10.60;;
66669;SDS011;53568;52.164;4.472;2024-01-10T09:42:04;10.55;;;10.43;;
66669;SDS011;53568;52.164;4.472;2024-01-10T09:44:31;10.84;;;10.67;;
66669;SDS011;53568;52.164;4.472;2024-01-10T09:46:58;10.50;;;10.44;;
66669;SDS011;53568;52.164;4.472;2024-01-10T09:49:24;10.71;;;10.58;;
66669;SDS011;53568;52.164;4.472;2024-01-10T09:51:53;10.96;;;10.85;;
66669;SDS011;53568;52.164;4.472;2024-01-10T09:54:24;10.80;;;10.74;;
66669;SDS011;53568;52.164;4.472;2024-01-10T09:56:51;10.25;;;10.22;;
66669;SDS011;53568;52.164;4.472;2024-01-10T09:59:18;10.41;;;10.40;;
66669;SDS011;53568;52.164;4.472;2024-01-10T10:01:43;10.39;;;10.32;;
66669;SDS011;53568;52.164;4.472;2024-01-10T10:04:09;10.89;;;10.76;;
66669;SDS011;53568;52.164;4.472;2024-01-10T10:06:37;10.35;;;10.31;;
66669;SDS011;53568;52.164;4.472;2024-01-10T10:09:03;10.69;;;10.64;;
66669;SDS011;53568;52.164;4.472;2024-01-10T10:11:29;10.96;;;10.85;;
66669;SDS011;53568;52.164;4.472;2024-01-10T10:13:55;10.99;;;10.91;;
66669;SDS011;53568;52.164;4.472;2024-01-10T10:16:24;10.68;;;10.61;;
66669;SDS011;53568;52.164;4.472;2024-01-10T10:18:54;10.65;;;10.56;;
66669;SDS011;53568;52.164;4.472;2024-01-10T10:21:24;10.82;;;10.68;;
66669;SDS011;53568;52.164;4.472;2024-01-10T10:23:57;10.88;;;10.81;;
66669;SDS011;53568;52.164;4.472;2024-01-10T10:26:24;10.73;;;10.64;;
66669;SDS011;53568;52.164;4.472;2024-01-10T10:28:52;10.65;;;10.55;;
66669;SDS011;53568;52.164;4.472;2024-01-10T10:31:18;11.00;;;10.89;;
66669;SDS011;53568;52.164;4.472;2024-01-10T10:33:45;10.84;;;10.64;;
66669;SDS011;53568;52.164;4.472;2024-01-10T10:36:14;10.86;;;10.68;;
66669;SDS011;53568;52.164;4.472;2024-01-10T10:38:40;10.65;;;10.56;;
66669;SDS011;53568;52.164;4.472;2024-01-10T10:41:06;10.44;;;10.42;;
66669;SDS011;53568;52.164;4.472;2024-01-10T10:43:35;10.37;;;10.31;;
66669;SDS011;53568;52.164;4.472;2024-01-10T10:46:06;10.98;;;10.87;;
66669;SDS011;53568;52.164;4.472;2024-01-10T10:48:33;10.47;;;10.38;;
66669;SDS011;53568;52.164;4.472;2024-01-10T10:53:32;10.38;;;10.27;;
66669;SDS011;53568;52.164;4.472;2024-01-10T10:56:05;10.79;;;10.66;;
66669;SDS011;53568;52.164;4.472;2024-01-10T10:58:36;10.84;;;10.68;;
66669;SDS011;53568;52.164;4.472;2024-01-10T11:01:05;10.87;;;10.69;;
66669;SDS011;53568;52.164;4.472;2024-01-10T11:03:34;10.50;;;10.36;;
66669;SDS011;53568;52.164;4.472;2024-01-10T11:06:02;10.63;;;10.42;;
66669;SDS011;53568;52.164;4.472;2024-01-10T11:08:34;10.99;;;10.85;;
66669;SDS011;53568;52.164;4.472;2024-01-10T11:11:12;11.01;;;10.91;;
66669;SDS011;53568;52.164;4.472;2024-01-10T11:25:35;11.61;;;11.54;;
66669;SDS011;53568;52.164;4.472;2024-01-10T11:28:02;11.40;;;11.37;;
66669;SDS011;53568;52.164;4.472;2024-01-10T11:30:35;11.68;;;11.56;;
66669;SDS011;53568;52.164;4.472;2024-01-10T11:36:05;11.52;;;11.48;;
66669;SDS011;53568;52.164;4.472;2024-01-10T11:41:32;11.93;;;11.78;;
66669;SDS011;53568;52.164;4.472;2024-01-10T11:46:37;11.69;;;11.62;;
66669;SDS011;53568;52.164;4.472;2024-01-10T11:49:11;12.07;;;11.90;;
66669;SDS011;53568;52.164;4.472;2024-01-10T11:57:07;11.46;;;11.38;;
66669;SDS011;53568;52.164;4.472;2024-01-10T11:59:35;11.49;;;11.42;;
66669;SDS011;53568;52.164;4.472;2024-01-10T12:02:02;11.85;;;11.82;;
66669;SDS011;53568;52.164;4.472;2024-01-10T12:04:29;11.93;;;11.78;;
66669;SDS011;53568;52.164;4.472;2024-01-10T12:06:57;11.41;;;11.32;;
66669;SDS011;53568;52.164;4.472;2024-01-10T12:09:23;11.36;;;11.31;;
66669;SDS011;53568;52.164;4.472;2024-01-10T12:11:49;11.89;;;11.79;;
66669;SDS011;53568;52.164;4.472;2024-01-10T12:14:16;12.35;;;12.20;;
66669;SDS011;53568;52.164;4.472;2024-01-10T12:16:42;12.52;;;12.42;;
66669;SDS011;53568;52.164;4.472;2024-01-10T12:19:08;12.55;;;12.42;;
66669;SDS011;53568;52.164;4.472;2024-01-10T12:21:33;12.44;;;12.24;;
66669;SDS011;53568;52.164;4.472;2024-01-10T12:23:59;11.69;;;11.52;;
66669;SDS011;53568;52.164;4.472;2024-01-10T12:26:24;12.11;;;12.04;;
66669;SDS011;53568;52.164;4.472;2024-01-10T12:28:57;12.11;;;11.99;;
66669;SDS011;53568;52.164;4.472;2024-01-10T12:31:26;12.93;;;12.70;;
66669;SDS011;53568;52.164;4.472;2024-01-10T12:33:56;13.20;;;13.06;;
66669;SDS011;53568;52.164;4.472;2024-01-10T12:36:25;12.52;;;12.32;;
66669;SDS011;53568;52.164;4.472;2024-01-10T12:38:50;12.86;;;12.81;;
66669;SDS011;53568;52.164;4.472;2024-01-10T12:41:17;12.88;;;12.75;;
66669;SDS011;53568;52.164;4.472;2024-01-10T12:43:53;13.07;;;12.89;;
66669;SDS011;53568;52.164;4.472;2024-01-10T12:46:20;13.08;;;12.96;;
66669;SDS011;53568;52.164;4.472;2024-01-10T12:48:59;13.18;;;13.13;;
66669;SDS011;53568;52.164;4.472;2024-01-10T12:51:28;13.03;;;12.97;;
66669;SDS011;53568;52.164;4.472;2024-01-10T12:53:56;12.99;;;12.92;;
66669;SDS011;53568;52.164;4.472;2024-01-10T12:56:24;13.50;;;13.38;;
66669;SDS011;53568;52.164;4.472;2024-01-10T12:58:50;13.71;;;13.52;;
66669;SDS011;53568;52.164;4.472;2024-01-10T13:01:15;12.91;;;12.77;;
66669;SDS011;53568;52.164;4.472;2024-01-10T13:03:41;13.20;;;13.05;;
66669;SDS011;53568;52.164;4.472;2024-01-10T13:06:07;13.08;;;12.89;;
66669;SDS011;53568;52.164;4.472;2024-01-10T13:08:34;13.22;;;13.05;;
66669;SDS011;53568;52.164;4.472;2024-01-10T13:11:00;12.85;;;12.74;;
66669;SDS011;53568;52.164;4.472;2024-01-10T13:13:26;13.39;;;13.23;;
66669;SDS011;53568;52.164;4.472;2024-01-10T13:15:51;13.30;;;13.03;;
66669;SDS011;53568;52.164;4.472;2024-01-10T13:18:17;13.17;;;12.91;;
66669;SDS011;53568;52.164;4.472;2024-01-10T13:20:43;13.45;;;13.23;;
66669;SDS011;53568;52.164;4.472;2024-01-10T13:23:10;13.15;;;12.98;;
66669;SDS011;53568;52.164;4.472;2024-01-10T13:25:36;12.72;;;12.60;;
66669;SDS011;53568;52.164;4.472;2024-01-10T13:28:03;12.86;;;12.73;;
66669;SDS011;53568;52.164;4.472;2024-01-10T13:30:29;13.20;;;12.93;;
66669;SDS011;53568;52.164;4.472;2024-01-10T13:32:55;13.55;;;13.37;;
66669;SDS011;53568;52.164;4.472;2024-01-10T13:35:23;12.97;;;12.88;;
66669;SDS011;53568;52.164;4.472;2024-01-10T13:37:49;12.82;;;12.70;;
66669;SDS011;53568;52.164;4.472;2024-01-10T13:40:15;13.53;;;13.37;;
66669;SDS011;53568;52.164;4.472;2024-01-10T13:42:44;13.69;;;13.65;;
66669;SDS011;53568;52.164;4.472;2024-01-10T13:45:10;13.37;;;13.15;;
66669;SDS011;53568;52.164;4.472;2024-01-10T13:47:37;13.66;;;13.47;;
66669;SDS011;53568;52.164;4.472;2024-01-10T13:50:03;13.56;;;13.41;;
66669;SDS011;53568;52.164;4.472;2024-01-10T13:52:32;13.62;;;13.46;;
66669;SDS011;53568;52.164;4.472;2024-01-10T13:54:59;13.53;;;13.35;;
66669;SDS011;53568;52.164;4.472;2024-01-10T13:57:25;14.02;;;13.86;;
66669;SDS011;53568;52.164;4.472;2024-01-10T13:59:50;13.78;;;13.65;;
66669;SDS011;53568;52.164;4.472;2024-01-10T14:02:16;13.34;;;13.29;;
66669;SDS011;53568;52.164;4.472;2024-01-10T14:04:44;13.88;;;13.67;;
66669;SDS011;53568;52.164;4.472;2024-01-10T14:07:10;13.75;;;13.55;;
66669;SDS011;53568;52.164;4.472;2024-01-10T14:09:36;13.58;;;13.47;;
66669;SDS011;53568;52.164;4.472;2024-01-10T14:12:01;13.68;;;13.62;;
66669;SDS011;53568;52.164;4.472;2024-01-10T14:14:27;13.44;;;13.37;;
66669;SDS011;53568;52.164;4.472;2024-01-10T14:16:53;13.92;;;13.77;;
66669;SDS011;53568;52.164;4.472;2024-01-10T14:19:18;14.26;;;14.05;;
66669;SDS011;53568;52.164;4.472;2024-01-10T14:21:44;13.99;;;13.78;;
66669;SDS011;53568;52.164;4.472;2024-01-10T14:24:11;13.57;;;13.33;;
66669;SDS011;53568;52.164;4.472;2024-01-10T14:26:36;13.66;;;13.49;;
66669;SDS011;53568;52.164;4.472;2024-01-10T14:29:03;13.48;;;13.34;;
66669;SDS011;53568;52.164;4.472;2024-01-10T14:31:28;13.35;;;13.24;;
66669;SDS011;53568;52.164;4.472;2024-01-10T14:33:54;13.86;;;13.83;;
66669;SDS011;53568;52.164;4.472;2024-01-10T14:36:20;14.13;;;14.02;;
66669;SDS011;53568;52.164;4.472;2024-01-10T14:38:46;14.22;;;14.01;;
66669;SDS011;53568;52.164;4.472;2024-01-10T14:41:12;13.82;;;13.67;;
66669;SDS011;53568;52.164;4.472;2024-01-10T14:43:37;13.67;;;13.58;;
66669;SDS011;53568;52.164;4.472;2024-01-10T14:46:03;13.45;;;13.39;;
66669;SDS011;53568;52.164;4.472;2024-01-10T14:48:30;13.44;;;13.37;;
66669;SDS011;53568;52.164;4.472;2024-01-10T14:50:56;13.56;;;13.40;;
66669;SDS011;53568;52.164;4.472;2024-01-10T14:53:22;13.89;;;13.74;;